createdAt,value
2019-05-15T00:01:15.548Z,95992.00
2019-05-15T00:03:45.549Z,95989.00
2019-05-15T00:06:18.894Z,95992.00
2019-05-15T00:08:48.395Z,95990.00
2019-05-15T00:11:19.199Z,95983.00
2019-05-15T00:13:49.379Z,95980.00
2019-05-15T00:16:19.289Z,95975.00
2019-05-15T00:18:49.327Z,95972.00
2019-05-15T00:21:19.395Z,95978.00
2019-05-15T00:23:51.726Z,95976.00
2019-05-15T00:26:21.814Z,95965.00
2019-05-15T00:28:51.760Z,95961.00
2019-05-15T00:31:22.306Z,95956.00
2019-05-15T00:33:52.328Z,95952.00
2019-05-15T00:36:22.333Z,95966.00
2019-05-15T00:38:52.268Z,95960.00
2019-05-15T00:41:22.276Z,95962.00
2019-05-15T00:43:52.305Z,95958.00
2019-05-15T00:46:22.217Z,95956.00
2019-05-15T00:48:52.599Z,95952.00
2019-05-15T00:51:22.522Z,95963.00
2019-05-15T00:53:52.445Z,95946.00
2019-05-15T00:56:22.435Z,95944.00
2019-05-15T00:58:52.451Z,95941.00
2019-05-15T01:01:22.363Z,95928.00
2019-05-15T01:03:52.409Z,95936.00
2019-05-15T01:06:22.479Z,95921.00
2019-05-15T01:08:52.625Z,95929.00
2019-05-15T01:11:22.667Z,95919.00
2019-05-15T01:13:52.758Z,95924.00
2019-05-15T01:16:22.750Z,95927.00
2019-05-15T01:18:52.702Z,95916.00
2019-05-15T01:21:22.763Z,95917.00
2019-05-15T01:23:52.856Z,95915.00
2019-05-15T01:26:22.850Z,95909.00
2019-05-15T01:28:52.849Z,95907.00
2019-05-15T01:31:22.882Z,95901.00
2019-05-15T01:33:52.902Z,95902.00
2019-05-15T01:36:22.810Z,95905.00
2019-05-15T01:38:53.840Z,95903.00
2019-05-15T01:41:23.952Z,95904.00
2019-05-15T01:43:53.982Z,95886.00
2019-05-15T01:46:24.061Z,95897.00
2019-05-15T01:48:54.056Z,95887.00
2019-05-15T01:51:24.090Z,95897.00
2019-05-15T01:53:54.099Z,95894.00
2019-05-15T01:56:24.157Z,95882.00
2019-05-15T01:58:54.149Z,95884.00
2019-05-15T02:01:24.129Z,95882.00
2019-05-15T02:03:54.305Z,95881.00
2019-05-15T02:06:24.375Z,95872.00
2019-05-15T02:08:54.452Z,95877.00
2019-05-15T02:11:24.438Z,95881.00
2019-05-15T02:13:54.441Z,95867.00
2019-05-15T02:16:28.392Z,95869.00
2019-05-15T02:18:58.219Z,95868.00
2019-05-15T02:21:29.003Z,95861.00
2019-05-15T02:23:59.046Z,95868.00
2019-05-15T02:26:29.047Z,95873.00
2019-05-15T02:28:59.863Z,95873.00
2019-05-15T02:31:30.465Z,95869.00
2019-05-15T02:34:00.640Z,95856.00
2019-05-15T02:36:30.634Z,95856.00
2019-05-15T02:39:00.634Z,95860.00
2019-05-15T02:41:30.905Z,95861.00
2019-05-15T02:44:00.996Z,95853.00
2019-05-15T02:46:31.054Z,95853.00
2019-05-15T02:49:01.228Z,95851.00
2019-05-15T02:51:31.249Z,95849.00
2019-05-15T02:54:03.494Z,95846.00
2019-05-15T02:56:33.409Z,95860.00
2019-05-15T02:59:03.679Z,95844.00
2019-05-15T03:01:33.659Z,95847.00
2019-05-15T03:04:03.956Z,95856.00
2019-05-15T03:06:34.112Z,95841.00
2019-05-15T03:09:05.553Z,95846.00
2019-05-15T03:11:40.439Z,95828.00
2019-05-15T03:14:09.389Z,95852.00
2019-05-15T03:16:39.801Z,95837.00
2019-05-15T03:19:10.239Z,95840.00
2019-05-15T03:21:40.409Z,95848.00
2019-05-15T03:24:10.502Z,95843.00
2019-05-15T03:26:40.858Z,95837.00
2019-05-15T03:29:10.861Z,95835.00
2019-05-15T03:31:58.600Z,95828.00
2019-05-15T03:34:21.394Z,95834.00
2019-05-15T03:36:51.522Z,95844.00
2019-05-15T03:39:19.079Z,95833.00
2019-05-15T03:41:49.786Z,95839.00
2019-05-15T03:44:20.087Z,95845.00
2019-05-15T03:46:50.143Z,95831.00
2019-05-15T03:49:20.226Z,95835.00
2019-05-15T03:51:50.383Z,95833.00
2019-05-15T03:54:20.465Z,95835.00
2019-05-15T03:56:50.551Z,95828.00
2019-05-15T03:59:20.760Z,95842.00
2019-05-15T04:01:51.660Z,95834.00
2019-05-15T04:04:21.716Z,95833.00
2019-05-15T04:06:51.887Z,95832.00
2019-05-15T04:09:22.057Z,95834.00
2019-05-15T04:11:52.249Z,95832.00
2019-05-15T04:14:22.603Z,95835.00
2019-05-15T04:16:52.619Z,95819.00
2019-05-15T04:19:22.687Z,95827.00
2019-05-15T04:21:52.768Z,95824.00
2019-05-15T04:24:24.739Z,95824.00
2019-05-15T04:26:59.908Z,95817.00
2019-05-15T04:29:29.449Z,95806.00
2019-05-15T04:32:05.325Z,95816.00
2019-05-15T04:34:31.200Z,95810.00
2019-05-15T04:37:01.198Z,95812.00
2019-05-15T04:39:31.194Z,95810.00
2019-05-15T04:42:01.281Z,95812.00
2019-05-15T04:44:31.709Z,95812.00
2019-05-15T04:47:01.631Z,95812.00
2019-05-15T04:49:31.791Z,95808.00
2019-05-15T04:52:03.884Z,95815.00
2019-05-15T04:54:35.311Z,95813.00
2019-05-15T04:57:09.012Z,95802.00
2019-05-15T04:59:39.034Z,95811.00
2019-05-15T05:02:17.227Z,95817.00
2019-05-15T05:04:41.293Z,95813.00
2019-05-15T05:07:11.833Z,95822.00
2019-05-15T05:09:42.305Z,95810.00
2019-05-15T05:12:12.528Z,95817.00
2019-05-15T05:14:42.674Z,95817.00
2019-05-15T05:17:12.744Z,95817.00
2019-05-15T05:19:43.302Z,95806.00
2019-05-15T05:22:13.363Z,95807.00
2019-05-15T05:24:43.503Z,95813.00
2019-05-15T05:27:13.499Z,95813.00
2019-05-15T05:29:43.726Z,95817.00
2019-05-15T05:32:28.131Z,95809.00
2019-05-15T05:34:48.201Z,95818.00
2019-05-15T05:37:18.469Z,95817.00
2019-05-15T05:39:48.767Z,95812.00
2019-05-15T05:42:18.891Z,95818.00
2019-05-15T05:44:49.006Z,95808.00
2019-05-15T05:47:19.055Z,95813.00
2019-05-15T05:49:49.106Z,95810.00
2019-05-15T05:52:19.305Z,95818.00
2019-05-15T05:54:49.299Z,95816.00
2019-05-15T05:57:19.531Z,95806.00
2019-05-15T05:59:50.823Z,95811.00
2019-05-15T06:02:20.773Z,95801.00
2019-05-15T06:04:50.845Z,95812.00
2019-05-15T06:07:20.767Z,95807.00
2019-05-15T06:09:50.692Z,95818.00
2019-05-15T06:12:20.653Z,95811.00
2019-05-15T06:14:50.650Z,95819.00
2019-05-15T06:17:20.585Z,95812.00
2019-05-15T06:19:50.694Z,95814.00
2019-05-15T06:22:20.600Z,95820.00
2019-05-15T06:24:51.540Z,95812.00
2019-05-15T06:27:21.460Z,95807.00
2019-05-15T06:29:51.362Z,95813.00
2019-05-15T06:32:21.295Z,95821.00
2019-05-15T06:34:51.214Z,95827.00
2019-05-15T06:37:21.141Z,95821.00
2019-05-15T06:39:51.217Z,95824.00
2019-05-15T06:42:21.233Z,95822.00
2019-05-15T06:44:51.224Z,95822.00
2019-05-15T06:47:21.157Z,95817.00
2019-05-15T06:49:53.161Z,95816.00
2019-05-15T06:52:23.330Z,95823.00
2019-05-15T06:54:53.252Z,95837.00
2019-05-15T06:57:23.181Z,95829.00
2019-05-15T06:59:53.098Z,95819.00
2019-05-15T07:02:23.139Z,95823.00
2019-05-15T07:04:53.356Z,95828.00
2019-05-15T07:07:23.429Z,95820.00
2019-05-15T07:09:53.423Z,95835.00
2019-05-15T07:12:23.499Z,95848.00
2019-05-15T07:14:53.561Z,95823.00
2019-05-15T07:17:23.725Z,95832.00
2019-05-15T07:19:53.796Z,95836.00
2019-05-15T07:22:23.727Z,95839.00
2019-05-15T07:24:53.706Z,95830.00
2019-05-15T07:27:23.651Z,95843.00
2019-05-15T07:29:53.560Z,95838.00
2019-05-15T07:32:23.631Z,95828.00
2019-05-15T07:34:53.643Z,95835.00
2019-05-15T07:37:23.642Z,95833.00
2019-05-15T07:39:53.654Z,95844.00
2019-05-15T07:42:23.644Z,95829.00
2019-05-15T07:44:53.568Z,95845.00
2019-05-15T07:47:23.649Z,95842.00
2019-05-15T07:49:53.821Z,95842.00
2019-05-15T07:52:23.740Z,95849.00
2019-05-15T07:54:53.650Z,95844.00
2019-05-15T07:57:23.580Z,95843.00
2019-05-15T07:59:53.547Z,95843.00
2019-05-15T08:02:23.561Z,95836.00
2019-05-15T08:04:54.458Z,95848.00
2019-05-15T08:07:24.532Z,95846.00
2019-05-15T08:09:54.592Z,95836.00
2019-05-15T08:12:24.578Z,95849.00
2019-05-15T08:14:54.500Z,95842.00
2019-05-15T08:17:24.612Z,95833.00
2019-05-15T08:19:54.674Z,95833.00
2019-05-15T08:22:24.764Z,95841.00
2019-05-15T08:24:54.741Z,95835.00
2019-05-15T08:27:24.749Z,95842.00
2019-05-15T08:29:54.797Z,95842.00
2019-05-15T08:32:24.884Z,95835.00
2019-05-15T08:34:54.872Z,95846.00
2019-05-15T08:37:24.856Z,95846.00
2019-05-15T08:39:54.836Z,95839.00
2019-05-15T08:42:24.865Z,95840.00
2019-05-15T08:44:54.923Z,95839.00
2019-05-15T08:47:24.924Z,95829.00
2019-05-15T08:49:55.055Z,95824.00
2019-05-15T08:52:25.153Z,95829.00
2019-05-15T08:54:55.211Z,95831.00
2019-05-15T08:57:25.294Z,95828.00
2019-05-15T08:59:55.365Z,95832.00
2019-05-15T09:02:25.555Z,95827.00
2019-05-15T09:04:57.908Z,95836.00
2019-05-15T09:07:28.738Z,95827.00
2019-05-15T09:09:58.887Z,95818.00
2019-05-15T09:12:30.261Z,95817.00
2019-05-15T09:15:00.263Z,95815.00
2019-05-15T09:17:30.182Z,95809.00
2019-05-15T09:20:00.193Z,95812.00
2019-05-15T09:22:30.121Z,95819.00
2019-05-15T09:25:00.024Z,95807.00
2019-05-15T09:27:30.092Z,95798.00
2019-05-15T09:30:00.228Z,95807.00
2019-05-15T09:32:30.243Z,95804.00
2019-05-15T09:35:00.363Z,95807.00
2019-05-15T09:37:33.544Z,95812.00
2019-05-15T09:40:02.743Z,95815.00
2019-05-15T09:42:32.819Z,95806.00
2019-05-15T09:45:02.884Z,95810.00
2019-05-15T09:47:32.807Z,95806.00
2019-05-15T09:50:02.970Z,95806.00
2019-05-15T09:52:32.956Z,95808.00
2019-05-15T09:55:03.057Z,95793.00
2019-05-15T09:57:32.974Z,95786.00
2019-05-15T10:00:03.150Z,95793.00
2019-05-15T10:02:33.637Z,95787.00
2019-05-15T10:05:10.993Z,95788.00
2019-05-15T10:07:35.772Z,95788.00
2019-05-15T10:10:09.008Z,95780.00
2019-05-15T10:12:40.144Z,95786.00
2019-05-15T10:15:11.825Z,95784.00
2019-05-15T10:17:42.113Z,95786.00
2019-05-15T10:20:13.238Z,95791.00
2019-05-15T10:22:43.380Z,95778.00
2019-05-15T10:25:14.419Z,95790.00
2019-05-15T10:27:44.510Z,95775.00
2019-05-15T10:30:18.705Z,95774.00
2019-05-15T10:32:48.908Z,95775.00
2019-05-15T10:35:28.064Z,95773.00
2019-05-15T10:37:51.761Z,95771.00
2019-05-15T10:40:22.007Z,95764.00
2019-05-15T10:42:52.076Z,95758.00
2019-05-15T10:45:22.540Z,95753.00
2019-05-15T10:47:52.558Z,95757.00
2019-05-15T10:50:22.788Z,95759.00
2019-05-15T10:52:52.870Z,95737.00
2019-05-15T10:55:22.853Z,95741.00
2019-05-15T10:57:53.029Z,95743.00
2019-05-15T11:00:23.767Z,95738.00
2019-05-15T11:02:54.151Z,95746.00
2019-05-15T11:05:40.227Z,95739.00
2019-05-15T11:07:58.734Z,95752.00
2019-05-15T11:10:29.014Z,95747.00
2019-05-15T11:12:59.156Z,95751.00
2019-05-15T11:15:29.302Z,95731.00
2019-05-15T11:18:00.878Z,95734.00
2019-05-15T11:20:30.941Z,95736.00
2019-05-15T11:23:00.955Z,95725.00
2019-05-15T11:25:31.118Z,95727.00
2019-05-15T11:28:01.183Z,95735.00
2019-05-15T11:30:31.251Z,95730.00
2019-05-15T11:33:01.290Z,95726.00
2019-05-15T11:35:31.318Z,95733.00
2019-05-15T11:38:01.335Z,95727.00
2019-05-15T11:40:31.405Z,95719.00
2019-05-15T11:43:01.409Z,95711.00
2019-05-15T11:45:50.763Z,95711.00
2019-05-15T11:48:21.038Z,95722.00
2019-05-15T11:50:51.188Z,95728.00
2019-05-15T11:53:23.124Z,95723.00
2019-05-15T11:55:53.267Z,95724.00
2019-05-15T11:58:23.295Z,95726.00
2019-05-15T12:00:53.297Z,95726.00
2019-05-15T12:03:24.925Z,95723.00
2019-05-15T12:05:55.065Z,95724.00
2019-05-15T12:08:25.180Z,95707.00
2019-05-15T12:10:55.275Z,95722.00
2019-05-15T12:13:25.354Z,95721.00
2019-05-15T12:15:55.411Z,95726.00
2019-05-15T12:18:27.945Z,95724.00
2019-05-15T12:20:59.608Z,95718.00
2019-05-15T12:23:29.587Z,95718.00
2019-05-15T12:26:00.036Z,95725.00
2019-05-15T12:28:30.092Z,95722.00
2019-05-15T12:31:00.225Z,95725.00
2019-05-15T12:33:30.244Z,95726.00
2019-05-15T12:36:00.425Z,95729.00
2019-05-15T12:38:30.492Z,95727.00
2019-05-15T13:01:18.456Z,95709.00
2019-05-15T13:03:49.234Z,95715.00
2019-05-15T13:06:19.368Z,95708.00
2019-05-15T13:08:49.650Z,95717.00
2019-05-15T13:11:19.721Z,95718.00
2019-05-15T13:13:49.721Z,95707.00
2019-05-15T13:16:19.734Z,95704.00
2019-05-15T13:18:49.717Z,95703.00
2019-05-15T13:21:20.916Z,95696.00
2019-05-15T13:23:51.147Z,95704.00
2019-05-15T13:26:26.137Z,95696.00
2019-05-15T13:28:53.900Z,95694.00
2019-05-15T13:31:23.960Z,95695.00
2019-05-15T13:33:53.952Z,95706.00
2019-05-15T13:36:24.080Z,95701.00
2019-05-15T13:38:54.262Z,95700.00
2019-05-15T13:41:24.272Z,95704.00
2019-05-15T13:43:54.255Z,95697.00
2019-05-15T13:46:24.169Z,95696.00
2019-05-15T13:48:54.096Z,95697.00
2019-05-15T13:51:25.341Z,95699.00
2019-05-15T13:53:55.428Z,95698.00
2019-05-15T13:56:25.417Z,95693.00
2019-05-15T13:58:55.469Z,95699.00
2019-05-15T14:01:25.467Z,95706.00
2019-05-15T14:03:55.558Z,95704.00
2019-05-15T14:06:25.475Z,95700.00
2019-05-15T14:08:57.957Z,95703.00
2019-05-15T14:11:30.904Z,95694.00
2019-05-15T14:13:59.464Z,95694.00
2019-05-15T14:16:29.890Z,95688.00
2019-05-15T14:18:59.997Z,95690.00
2019-05-15T14:21:31.122Z,95677.00
2019-05-15T14:24:01.606Z,95688.00
2019-05-15T14:26:31.729Z,95679.00
2019-05-15T14:29:01.801Z,95676.00
2019-05-15T14:31:31.778Z,95686.00
2019-05-15T14:34:02.640Z,95685.00
2019-05-15T14:36:32.690Z,95679.00
2019-05-15T14:39:03.231Z,95679.00
2019-05-15T14:41:33.740Z,95671.00
2019-05-15T14:44:16.448Z,95672.00
2019-05-15T14:46:35.379Z,95660.00
2019-05-15T14:49:05.461Z,95675.00
2019-05-15T14:51:35.439Z,95687.00
2019-05-15T14:54:05.634Z,95682.00
2019-05-15T14:56:35.678Z,95677.00
2019-05-15T14:59:05.890Z,95664.00
2019-05-15T15:01:38.251Z,95680.00
2019-05-15T15:04:08.929Z,95666.00
2019-05-15T15:06:39.314Z,95670.00
2019-05-15T15:09:09.801Z,95674.00
2019-05-15T15:11:39.855Z,95673.00
2019-05-15T15:14:10.053Z,95667.00
2019-05-15T15:16:40.153Z,95682.00
2019-05-15T15:19:10.182Z,95674.00
2019-05-15T15:21:40.100Z,95673.00
2019-05-15T15:24:10.139Z,95677.00
2019-05-15T15:26:40.084Z,95673.00
2019-05-15T15:29:10.094Z,95667.00
2019-05-15T15:31:41.636Z,95662.00
2019-05-15T15:34:12.901Z,95671.00
2019-05-15T15:36:43.054Z,95669.00
2019-05-15T15:39:12.989Z,95674.00
2019-05-15T15:41:43.082Z,95675.00
2019-05-15T15:44:13.165Z,95668.00
2019-05-15T15:46:43.322Z,95662.00
2019-05-15T15:49:16.893Z,95664.00
2019-05-15T15:51:45.875Z,95660.00
2019-05-15T15:54:15.885Z,95665.00
2019-05-15T15:56:48.347Z,95663.00
2019-05-15T15:59:18.217Z,95662.00
2019-05-15T16:01:49.440Z,95659.00
2019-05-15T16:04:19.825Z,95650.00
2019-05-15T16:06:49.895Z,95656.00
2019-05-15T16:09:19.970Z,95661.00
2019-05-15T16:11:50.080Z,95658.00
2019-05-15T16:14:21.337Z,95653.00
2019-05-15T16:16:51.419Z,95664.00
2019-05-15T16:19:21.479Z,95651.00
2019-05-15T16:21:51.484Z,95658.00
2019-05-15T16:24:22.016Z,95653.00
2019-05-15T16:26:52.238Z,95651.00
2019-05-15T16:29:22.314Z,95656.00
2019-05-15T16:31:52.332Z,95655.00
2019-05-15T16:34:22.324Z,95650.00
2019-05-15T16:36:52.901Z,95653.00
2019-05-15T16:39:22.808Z,95659.00
2019-05-15T16:41:52.730Z,95663.00
2019-05-15T16:44:22.823Z,95656.00
2019-05-15T16:46:52.918Z,95657.00
2019-05-15T16:49:22.836Z,95657.00
2019-05-15T16:51:53.048Z,95668.00
2019-05-15T16:54:23.160Z,95661.00
2019-05-15T16:56:53.270Z,95665.00
2019-05-15T16:59:23.486Z,95664.00
2019-05-15T17:01:53.570Z,95662.00
2019-05-15T17:04:23.626Z,95662.00
2019-05-15T17:06:53.633Z,95653.00
2019-05-15T17:09:24.028Z,95661.00
2019-05-15T17:11:54.916Z,95656.00
2019-05-15T17:14:25.038Z,95659.00
2019-05-15T17:16:54.977Z,95648.00
2019-05-15T17:19:25.128Z,95659.00
2019-05-15T17:21:55.433Z,95648.00
2019-05-15T17:24:25.391Z,95651.00
2019-05-15T17:26:55.429Z,95655.00
2019-05-15T17:29:25.489Z,95658.00
2019-05-15T17:31:55.458Z,95661.00
2019-05-15T17:34:25.432Z,95655.00
2019-05-15T17:36:58.317Z,95650.00
2019-05-15T17:39:36.631Z,95663.00
2019-05-15T17:42:00.424Z,95670.00
2019-05-15T17:44:30.341Z,95675.00
2019-05-15T17:47:00.477Z,95673.00
2019-05-15T17:49:30.685Z,95666.00
2019-05-15T17:52:00.756Z,95670.00
2019-05-15T17:54:30.752Z,95671.00
2019-05-15T17:57:00.741Z,95676.00
2019-05-15T17:59:30.814Z,95673.00
2019-05-15T18:02:00.839Z,95671.00
2019-05-15T18:04:30.778Z,95680.00
2019-05-15T18:07:00.811Z,95676.00
2019-05-15T18:09:30.872Z,95669.00
2019-05-15T18:12:00.962Z,95670.00
2019-05-15T18:14:31.015Z,95677.00
2019-05-15T18:17:01.098Z,95671.00
2019-05-15T18:19:31.077Z,95685.00
2019-05-15T18:22:01.179Z,95684.00
2019-05-15T18:24:31.128Z,95672.00
2019-05-15T18:27:01.299Z,95677.00
2019-05-15T18:29:31.297Z,95679.00
2019-05-15T18:32:01.224Z,95684.00
2019-05-15T18:34:31.160Z,95682.00
2019-05-15T18:37:01.168Z,95679.00
2019-05-15T18:39:31.264Z,95678.00
2019-05-15T18:42:01.331Z,95676.00
2019-05-15T18:44:31.304Z,95677.00
2019-05-15T18:47:01.227Z,95680.00
2019-05-15T18:49:31.254Z,95670.00
2019-05-15T18:52:01.449Z,95683.00
2019-05-15T18:54:31.431Z,95682.00
2019-05-15T18:57:01.425Z,95680.00
2019-05-15T18:59:31.588Z,95681.00
2019-05-15T19:02:01.750Z,95678.00
2019-05-15T19:04:31.833Z,95688.00
2019-05-15T19:07:01.755Z,95687.00
2019-05-15T19:09:32.790Z,95681.00
2019-05-15T19:12:02.816Z,95691.00
2019-05-15T19:14:34.596Z,95683.00
2019-05-15T19:17:04.798Z,95694.00
2019-05-15T19:19:34.848Z,95694.00
2019-05-15T19:22:04.940Z,95683.00
2019-05-15T19:24:34.917Z,95686.00
2019-05-15T19:27:05.017Z,95701.00
2019-05-15T19:29:35.270Z,95697.00
2019-05-15T19:32:08.244Z,95683.00
2019-05-15T19:34:38.789Z,95693.00
2019-05-15T19:37:08.998Z,95694.00
2019-05-15T19:39:38.981Z,95692.00
2019-05-15T19:42:09.086Z,95683.00
2019-05-15T19:44:39.238Z,95695.00
2019-05-15T19:47:09.371Z,95693.00
2019-05-15T19:49:39.582Z,95693.00
2019-05-15T19:52:10.083Z,95701.00
2019-05-15T19:54:40.598Z,95703.00
2019-05-15T19:57:11.009Z,95693.00
2019-05-15T19:59:41.706Z,95703.00
2019-05-15T20:02:12.333Z,95699.00
2019-05-15T20:04:43.002Z,95706.00
2019-05-15T20:07:13.754Z,95697.00
2019-05-15T20:09:44.737Z,95691.00
2019-05-15T20:12:15.410Z,95695.00
2019-05-15T20:14:46.113Z,95689.00
2019-05-15T20:17:18.304Z,95684.00
2019-05-15T20:19:48.942Z,95685.00
2019-05-15T20:22:19.101Z,95687.00
2019-05-15T20:24:49.315Z,95690.00
2019-05-15T20:27:19.432Z,95691.00
2019-05-15T20:29:49.707Z,95688.00
2019-05-15T20:32:19.849Z,95682.00
2019-05-15T20:34:49.994Z,95680.00
2019-05-15T20:37:20.216Z,95684.00
2019-05-15T20:39:50.399Z,95670.00
2019-05-15T20:42:20.600Z,95672.00
2019-05-15T20:44:51.148Z,95669.00
2019-05-15T20:47:21.236Z,95675.00
2019-05-15T20:49:51.407Z,95678.00
2019-05-15T20:52:21.861Z,95681.00
2019-05-15T20:54:52.213Z,95655.00
2019-05-15T20:57:22.522Z,95656.00
2019-05-15T20:59:52.964Z,95653.00
2019-05-15T21:02:23.089Z,95652.00
2019-05-15T21:05:12.526Z,95661.00
2019-05-15T21:07:43.532Z,95656.00
2019-05-15T21:10:15.281Z,95659.00
2019-05-15T21:12:45.559Z,95661.00
2019-05-15T21:15:15.772Z,95655.00
2019-05-15T21:17:57.496Z,95655.00
2019-05-15T21:20:18.328Z,95655.00
2019-05-15T21:22:49.631Z,95646.00
2019-05-15T21:25:20.058Z,95654.00
2019-05-15T21:27:50.371Z,95656.00
2019-05-15T21:30:20.794Z,95659.00
2019-05-15T21:32:51.035Z,95651.00
2019-05-15T21:35:21.226Z,95657.00
2019-05-15T21:37:51.417Z,95654.00
2019-05-15T21:40:21.592Z,95660.00
2019-05-15T21:42:51.801Z,95654.00
2019-05-15T21:45:22.002Z,95656.00
2019-05-15T21:47:52.316Z,95641.00
2019-05-15T21:50:22.512Z,95650.00
2019-05-15T21:52:52.735Z,95648.00
2019-05-15T21:55:22.991Z,95641.00
2019-05-15T21:57:53.455Z,95633.00
2019-05-15T22:00:33.307Z,95625.00
2019-05-15T22:03:03.961Z,95627.00
2019-05-15T22:05:34.397Z,95619.00
2019-05-15T22:08:04.683Z,95623.00
2019-05-15T22:10:34.916Z,95623.00
2019-05-15T22:13:05.986Z,95621.00
2019-05-15T22:15:36.157Z,95614.00
2019-05-15T22:18:10.847Z,95611.00
2019-05-15T22:20:39.232Z,95610.00
2019-05-15T22:23:09.580Z,95609.00
2019-05-15T22:25:40.088Z,95608.00
2019-05-15T22:28:10.315Z,95608.00
2019-05-15T22:30:40.562Z,95603.00
2019-05-15T22:33:10.807Z,95603.00
2019-05-15T22:35:41.028Z,95606.00
2019-05-15T22:38:11.258Z,95598.00
2019-05-15T22:40:41.695Z,95606.00
2019-05-15T22:43:12.014Z,95595.00
2019-05-15T22:45:42.161Z,95598.00
2019-05-15T22:48:12.449Z,95592.00
2019-05-15T22:50:42.691Z,95589.00
2019-05-15T22:53:12.900Z,95588.00
2019-05-15T22:55:43.119Z,95590.00
2019-05-15T22:58:13.464Z,95588.00
2019-05-15T23:00:43.495Z,95577.00
2019-05-15T23:03:13.544Z,95590.00
2019-05-15T23:05:43.734Z,95578.00
2019-05-15T23:08:13.789Z,95578.00
2019-05-15T23:10:43.938Z,95576.00
2019-05-15T23:13:14.423Z,95569.00
2019-05-15T23:15:44.515Z,95566.00
2019-05-15T23:18:14.740Z,95566.00
2019-05-15T23:20:44.839Z,95554.00
2019-05-15T23:23:15.047Z,95556.00
2019-05-15T23:25:45.153Z,95555.00
2019-05-15T23:28:15.272Z,95552.00
2019-05-15T23:30:45.332Z,95558.00
2019-05-15T23:33:15.367Z,95540.00
2019-05-15T23:35:45.525Z,95545.00
2019-05-15T23:38:15.608Z,95542.00
2019-05-15T23:40:48.149Z,95535.00
2019-05-15T23:43:18.925Z,95521.00
2019-05-15T23:45:49.240Z,95518.00
2019-05-15T23:48:19.166Z,95527.00
2019-05-15T23:50:49.113Z,95518.00
2019-05-15T23:53:19.660Z,95511.00
2019-05-15T23:55:49.751Z,95504.00
2019-05-15T23:58:19.778Z,95504.00
